createdAt,value
2022-12-15T00:00:29.063Z,63
2022-12-15T00:02:12.757Z,62.8
2022-12-15T00:03:56.459Z,62.6
2022-12-15T00:05:40.164Z,62.5
2022-12-15T00:07:23.877Z,62.4
2022-12-15T00:09:07.589Z,62.5
2022-12-15T00:10:51.282Z,62.5
2022-12-15T00:12:34.991Z,62.5
2022-12-15T00:14:18.724Z,62.5
2022-12-15T00:16:02.405Z,62.5
2022-12-15T00:17:46.130Z,62.5
2022-12-15T00:19:29.790Z,62.5
2022-12-15T00:21:13.506Z,62.5
2022-12-15T00:22:57.201Z,62.5
2022-12-15T00:24:40.913Z,62.5
2022-12-15T00:26:24.605Z,62.4
2022-12-15T00:28:08.303Z,62.4
2022-12-15T00:29:52.005Z,62.4
2022-12-15T00:31:35.715Z,62.4
2022-12-15T00:33:19.498Z,62.5
2022-12-15T00:35:03.142Z,62.8
2022-12-15T00:36:46.830Z,62.9
2022-12-15T00:38:30.572Z,62.7
2022-12-15T00:40:14.265Z,62.4
2022-12-15T00:41:57.926Z,62.3
2022-12-15T00:43:41.673Z,62.2
2022-12-15T00:45:25.334Z,62.3
2022-12-15T00:47:09.037Z,62.2
2022-12-15T00:48:52.764Z,62.1
2022-12-15T00:50:36.442Z,62.1
2022-12-15T00:52:20.336Z,62.2
2022-12-15T00:54:03.884Z,62.1
2022-12-15T00:55:47.547Z,62.1
2022-12-15T00:57:31.257Z,62.1
2022-12-15T00:59:15.055Z,62.1
2022-12-15T01:00:58.663Z,62
2022-12-15T01:02:42.363Z,62.1
2022-12-15T01:04:26.158Z,62
2022-12-15T01:06:09.767Z,62
2022-12-15T01:07:53.467Z,62
2022-12-15T01:09:37.168Z,62
2022-12-15T01:11:20.871Z,62
2022-12-15T01:13:04.582Z,62
2022-12-15T01:14:48.279Z,62
2022-12-15T01:16:31.986Z,61.9
2022-12-15T01:18:15.692Z,62
2022-12-15T01:19:59.381Z,61.9
2022-12-15T01:21:43.126Z,61.9
2022-12-15T01:23:26.799Z,61.9
2022-12-15T01:25:10.496Z,61.9
2022-12-15T01:26:54.208Z,61.9
2022-12-15T01:28:37.902Z,61.8
2022-12-15T01:30:21.605Z,61.9
2022-12-15T01:32:05.324Z,61.9
2022-12-15T01:33:49.170Z,61.8
2022-12-15T01:35:32.773Z,61.8
2022-12-15T01:37:16.424Z,61.8
2022-12-15T01:39:00.140Z,61.8
2022-12-15T01:40:43.820Z,61.8
2022-12-15T01:42:27.530Z,61.8
2022-12-15T01:44:11.235Z,61.7
2022-12-15T01:45:54.934Z,61.7
2022-12-15T01:47:38.633Z,61.8
2022-12-15T01:49:22.347Z,61.7
2022-12-15T01:51:06.046Z,61.7
2022-12-15T01:52:49.737Z,61.7
2022-12-15T01:54:33.473Z,61.6
2022-12-15T01:56:17.146Z,61.6
2022-12-15T01:58:00.888Z,61.6
2022-12-15T01:59:44.563Z,61.6
2022-12-15T02:01:28.253Z,61.6
2022-12-15T02:03:12.018Z,61.6
2022-12-15T02:04:55.666Z,61.6
2022-12-15T02:06:39.361Z,61.5
2022-12-15T02:08:23.061Z,61.6
2022-12-15T02:10:06.774Z,61.5
2022-12-15T02:11:50.477Z,61.5
2022-12-15T02:13:34.218Z,61.5
2022-12-15T02:15:17.880Z,61.4
2022-12-15T02:17:01.580Z,61.5
2022-12-15T02:18:45.288Z,61.4
2022-12-15T02:20:29.009Z,61.5
2022-12-15T02:22:12.713Z,61.4
2022-12-15T02:23:56.393Z,61.4
2022-12-15T02:25:40.101Z,61.4
2022-12-15T02:27:23.821Z,61.4
2022-12-15T02:29:07.501Z,61.4
2022-12-15T02:30:51.267Z,61.4
2022-12-15T02:32:34.961Z,61.4
2022-12-15T02:34:18.624Z,61.4
2022-12-15T02:36:02.316Z,61.3
2022-12-15T02:37:46.036Z,61.4
2022-12-15T02:39:29.708Z,61.3
2022-12-15T02:41:13.427Z,61.3
2022-12-15T02:42:57.118Z,61.3
2022-12-15T02:44:40.829Z,61.3
2022-12-15T02:46:24.529Z,61.3
2022-12-15T02:48:08.406Z,61.3
2022-12-15T02:49:51.932Z,61.3
2022-12-15T02:51:35.638Z,61.3
2022-12-15T02:53:19.353Z,61.2
2022-12-15T02:55:03.046Z,61.2
2022-12-15T02:56:46.752Z,61.2
2022-12-15T02:58:30.467Z,61.2
2022-12-15T03:00:14.153Z,61.1
2022-12-15T03:01:57.854Z,61.1
2022-12-15T03:03:41.563Z,61.2
2022-12-15T03:05:25.260Z,61.1
2022-12-15T03:07:08.963Z,61.1
2022-12-15T03:08:52.671Z,61.1
2022-12-15T03:10:36.375Z,61.1
2022-12-15T03:12:20.102Z,61.1
2022-12-15T03:14:03.774Z,61.1
2022-12-15T03:15:47.476Z,61.1
2022-12-15T03:17:31.183Z,61.1
2022-12-15T03:19:14.896Z,61.1
2022-12-15T03:20:58.614Z,61.1
2022-12-15T03:22:42.293Z,61.1
2022-12-15T03:24:26.091Z,61.1
2022-12-15T03:26:09.689Z,61.1
2022-12-15T03:27:53.396Z,61
2022-12-15T03:29:37.130Z,61
2022-12-15T03:31:20.808Z,61
2022-12-15T03:33:04.513Z,61
2022-12-15T03:34:48.207Z,61
2022-12-15T03:36:31.917Z,61
2022-12-15T03:38:15.621Z,60.9
2022-12-15T03:39:59.445Z,60.9
2022-12-15T03:41:43.019Z,61
2022-12-15T03:43:26.726Z,60.9
2022-12-15T03:45:10.492Z,60.9
2022-12-15T03:46:54.125Z,60.9
2022-12-15T03:48:37.829Z,60.9
2022-12-15T03:50:21.602Z,60.9
2022-12-15T03:52:05.252Z,60.9
2022-12-15T03:53:48.934Z,60.9
2022-12-15T03:55:32.641Z,60.9
2022-12-15T03:57:16.346Z,60.9
2022-12-15T03:59:00.101Z,60.9
2022-12-15T04:00:43.759Z,60.9
2022-12-15T04:02:27.458Z,60.8
2022-12-15T04:04:11.214Z,60.8
2022-12-15T04:05:54.867Z,60.8
2022-12-15T04:07:38.578Z,60.8
2022-12-15T04:09:22.273Z,60.8
2022-12-15T04:11:05.970Z,60.8
2022-12-15T04:12:49.675Z,60.8
2022-12-15T04:14:33.378Z,60.8
2022-12-15T04:16:17.081Z,60.8
2022-12-15T04:18:00.810Z,60.7
2022-12-15T04:19:44.570Z,60.8
2022-12-15T04:21:28.209Z,60.7
2022-12-15T04:23:11.907Z,60.7
2022-12-15T04:24:55.595Z,60.7
2022-12-15T04:26:39.300Z,60.7
2022-12-15T04:28:23.001Z,60.7
2022-12-15T04:30:06.710Z,60.7
2022-12-15T04:31:50.397Z,60.7
2022-12-15T04:33:34.106Z,60.7
2022-12-15T04:35:17.805Z,60.7
2022-12-15T04:37:01.570Z,60.6
2022-12-15T04:38:45.222Z,60.7
2022-12-15T04:40:28.922Z,60.6
2022-12-15T04:42:12.643Z,60.6
2022-12-15T04:43:56.330Z,60.6
2022-12-15T04:45:40.036Z,60.6
2022-12-15T04:47:23.726Z,60.6
2022-12-15T04:49:07.424Z,60.6
2022-12-15T04:50:51.136Z,60.6
2022-12-15T04:52:35.137Z,60.6
2022-12-15T04:54:18.529Z,60.6
2022-12-15T04:56:02.237Z,60.6
2022-12-15T04:57:45.997Z,60.6
2022-12-15T04:59:29.690Z,60.5
2022-12-15T05:01:13.349Z,60.5
2022-12-15T05:02:57.059Z,60.6
2022-12-15T05:04:40.757Z,60.5
2022-12-15T05:06:24.464Z,60.5
2022-12-15T05:08:08.159Z,60.5
2022-12-15T05:09:51.863Z,60.5
2022-12-15T05:11:35.572Z,60.5
2022-12-15T05:13:19.270Z,60.5
2022-12-15T05:15:02.971Z,60.5
2022-12-15T05:16:46.666Z,60.5
2022-12-15T05:18:30.421Z,60.5
2022-12-15T05:20:14.094Z,60.4
2022-12-15T05:23:41.485Z,60.4
2022-12-15T05:25:25.205Z,60.4
2022-12-15T05:27:08.890Z,60.4
2022-12-15T05:28:52.589Z,60.4
2022-12-15T05:30:36.297Z,60.4
2022-12-15T05:32:20.017Z,60.4
2022-12-15T05:34:03.702Z,60.3
2022-12-15T05:35:47.419Z,60.4
2022-12-15T05:37:31.106Z,60.3
2022-12-15T05:39:14.867Z,60.3
2022-12-15T05:40:58.516Z,60.3
2022-12-15T05:42:42.224Z,60.3
2022-12-15T05:44:25.954Z,60.4
2022-12-15T05:46:09.612Z,60.3
2022-12-15T05:47:53.319Z,60.3
2022-12-15T05:49:37.024Z,60.2
2022-12-15T05:51:20.724Z,60.3
2022-12-15T05:53:04.554Z,60.3
2022-12-15T05:54:48.294Z,60.3
2022-12-15T05:56:31.827Z,60.3
2022-12-15T05:58:15.537Z,60.3
2022-12-15T05:59:59.236Z,60.3
2022-12-15T06:01:42.952Z,60.3
2022-12-15T06:03:26.665Z,60.4
2022-12-15T06:05:10.359Z,60.4
2022-12-15T06:06:54.074Z,60.5
2022-12-15T06:08:37.745Z,60.5
2022-12-15T06:10:21.450Z,60.6
2022-12-15T06:12:05.268Z,60.8
2022-12-15T06:13:48.856Z,60.8
2022-12-15T06:15:32.564Z,60.9
2022-12-15T06:17:16.264Z,61
2022-12-15T06:18:59.983Z,61
2022-12-15T06:20:43.671Z,61
2022-12-15T06:22:27.371Z,61
2022-12-15T06:24:11.061Z,61
2022-12-15T06:25:54.775Z,61
2022-12-15T06:27:38.470Z,61
2022-12-15T06:29:22.196Z,61.1
2022-12-15T06:31:05.881Z,61.1
2022-12-15T06:32:49.599Z,61.1
2022-12-15T06:34:33.292Z,61.1
2022-12-15T06:36:17.011Z,61.1
2022-12-15T06:38:00.705Z,60.9
2022-12-15T06:39:44.592Z,60.9
2022-12-15T06:41:28.145Z,60.9
2022-12-15T06:43:11.858Z,60.9
2022-12-15T06:44:55.518Z,60.8
2022-12-15T06:46:39.207Z,60.8
2022-12-15T06:48:22.936Z,60.8
2022-12-15T06:50:06.641Z,60.8
2022-12-15T06:51:50.317Z,60.8
2022-12-15T06:53:34.076Z,60.8
2022-12-15T06:55:17.837Z,60.8
2022-12-15T06:57:01.472Z,60.8
2022-12-15T06:58:45.128Z,60.8
2022-12-15T07:00:28.825Z,60.7
2022-12-15T07:02:12.542Z,60.7
2022-12-15T07:03:56.281Z,60.6
2022-12-15T07:05:39.948Z,60.6
2022-12-15T07:07:23.724Z,60.5
2022-12-15T07:09:07.334Z,60.5
2022-12-15T07:10:51.086Z,60.5
2022-12-15T07:12:34.753Z,60.5
2022-12-15T07:14:18.651Z,60.4
2022-12-15T07:16:02.201Z,60.4
2022-12-15T07:17:45.851Z,60.4
2022-12-15T07:19:29.548Z,60.3
2022-12-15T07:21:13.252Z,60.3
2022-12-15T07:22:56.956Z,60.3
2022-12-15T07:24:40.647Z,60.3
2022-12-15T07:26:24.460Z,60.2
2022-12-15T07:28:08.073Z,60.2
2022-12-15T07:29:51.775Z,60.2
2022-12-15T07:31:35.467Z,60.2
2022-12-15T07:33:19.259Z,60.2
2022-12-15T07:35:02.933Z,60.1
2022-12-15T07:36:46.579Z,60.1
2022-12-15T07:38:30.277Z,60
2022-12-15T07:40:13.993Z,60
2022-12-15T07:41:57.691Z,60
2022-12-15T07:43:41.372Z,60
2022-12-15T07:45:25.084Z,60
2022-12-15T07:47:08.814Z,60
2022-12-15T07:48:52.496Z,59.9
2022-12-15T07:50:36.261Z,59.9
2022-12-15T07:52:19.900Z,59.9
2022-12-15T07:54:03.598Z,59.9
2022-12-15T07:55:47.311Z,59.9
2022-12-15T07:57:31.143Z,59.8
2022-12-15T07:59:14.719Z,59.8
2022-12-15T08:00:58.419Z,59.8
2022-12-15T08:02:42.156Z,59.8
2022-12-15T08:04:25.864Z,59.8
2022-12-15T08:06:09.577Z,59.8
2022-12-15T08:07:53.302Z,59.8
2022-12-15T08:09:36.938Z,59.9
2022-12-15T08:11:20.719Z,59.9
2022-12-15T08:13:04.382Z,59.8
2022-12-15T08:14:48.041Z,59.8
2022-12-15T08:16:31.744Z,59.8
2022-12-15T08:18:15.433Z,59.5
2022-12-15T08:19:59.190Z,59.5
2022-12-15T08:21:42.869Z,59.3
2022-12-15T08:23:26.668Z,59.2
2022-12-15T08:25:10.254Z,59.2
2022-12-15T08:26:54.023Z,59.2
2022-12-15T08:28:37.685Z,59.2
2022-12-15T08:30:21.359Z,59.2
2022-12-15T08:32:05.079Z,59.2
2022-12-15T08:33:48.933Z,59.1
2022-12-15T08:35:32.468Z,59.2
2022-12-15T08:37:16.169Z,59.1
2022-12-15T08:38:59.966Z,59.2
2022-12-15T08:40:43.575Z,59.2
2022-12-15T08:42:27.303Z,59.2
2022-12-15T08:44:11.179Z,59.2
2022-12-15T08:45:54.686Z,59.2
2022-12-15T08:47:38.555Z,59.2
2022-12-15T08:49:22.118Z,59.2
2022-12-15T08:51:05.831Z,59.2
2022-12-15T08:52:49.510Z,59.1
2022-12-15T08:54:33.203Z,59.1
2022-12-15T08:56:16.968Z,59.2
2022-12-15T08:58:00.631Z,59.1
2022-12-15T08:59:44.314Z,59.1
2022-12-15T09:01:28.020Z,59.1
2022-12-15T09:03:11.734Z,59
2022-12-15T09:04:55.483Z,59
2022-12-15T09:06:39.262Z,59
2022-12-15T09:08:22.839Z,59.1
2022-12-15T09:10:06.532Z,59
2022-12-15T09:11:50.240Z,58.9
2022-12-15T09:13:33.933Z,58.8
2022-12-15T09:15:17.777Z,58.9
2022-12-15T09:17:01.351Z,58.9
2022-12-15T09:18:45.043Z,58.9
2022-12-15T09:20:28.744Z,58.9
2022-12-15T09:22:12.527Z,58.9
2022-12-15T09:23:56.326Z,58.8
2022-12-15T09:25:39.964Z,58.8
2022-12-15T09:27:23.726Z,58.8
2022-12-15T09:29:07.256Z,58.8
2022-12-15T09:30:51.004Z,58.8
2022-12-15T09:32:34.731Z,58.7
2022-12-15T09:34:18.509Z,58.7
2022-12-15T09:36:02.074Z,58.7
2022-12-15T09:37:45.799Z,58.7
2022-12-15T09:39:29.471Z,58.6
2022-12-15T09:41:13.197Z,58.6
2022-12-15T09:42:56.888Z,58.7
2022-12-15T09:44:40.617Z,58.6
2022-12-15T09:46:24.299Z,58.6
2022-12-15T09:48:08.034Z,58.6
2022-12-15T09:49:51.692Z,58.6
2022-12-15T09:51:35.412Z,58.6
2022-12-15T09:53:19.096Z,58.6
2022-12-15T09:55:02.856Z,58.8
2022-12-15T09:56:46.512Z,58.9
2022-12-15T09:58:30.385Z,58.9
2022-12-15T10:00:14.075Z,58.9
2022-12-15T10:01:57.761Z,59
2022-12-15T10:03:41.512Z,58.9
2022-12-15T10:05:25.194Z,58.9
2022-12-15T10:07:08.899Z,59
2022-12-15T10:08:52.587Z,58.9
2022-12-15T10:10:36.310Z,58.8
2022-12-15T10:12:20.002Z,58.8
2022-12-15T10:14:03.645Z,58.9
2022-12-15T10:15:47.438Z,58.7
2022-12-15T10:17:31.169Z,58.6
2022-12-15T10:19:14.747Z,58.7
2022-12-15T10:20:58.452Z,58.7
2022-12-15T10:22:42.322Z,58.8
2022-12-15T10:24:25.909Z,58.8
2022-12-15T10:26:09.556Z,58.8
2022-12-15T10:27:53.383Z,58.8
2022-12-15T10:29:37.015Z,58.9
2022-12-15T10:31:20.698Z,58.9
2022-12-15T10:33:04.434Z,58.8
2022-12-15T10:34:48.127Z,58.9
2022-12-15T10:36:31.839Z,58.8
2022-12-15T10:38:15.560Z,58.8
2022-12-15T10:39:59.143Z,58.8
2022-12-15T10:41:42.945Z,58.7
2022-12-15T10:43:26.465Z,58.6
2022-12-15T10:45:10.437Z,58.6
2022-12-15T10:46:54.068Z,58.3
2022-12-15T10:48:37.759Z,58.3
2022-12-15T10:50:21.275Z,58.4
2022-12-15T10:52:05.103Z,58.4
2022-12-15T10:53:48.800Z,58.5
2022-12-15T10:55:32.578Z,58.5
2022-12-15T10:57:16.266Z,58.5
2022-12-15T10:58:59.969Z,58.6
2022-12-15T11:00:43.664Z,58.5
2022-12-15T11:02:27.427Z,58.6
2022-12-15T11:04:11.135Z,58.6
2022-12-15T11:05:54.761Z,58.5
2022-12-15T11:07:38.518Z,58.5
2022-12-15T11:09:22.198Z,58.5
2022-12-15T11:11:05.897Z,58.5
2022-12-15T11:12:49.606Z,58.6
2022-12-15T11:14:33.248Z,58.7
2022-12-15T11:16:16.980Z,58.6
2022-12-15T11:18:00.725Z,58.6
2022-12-15T11:19:44.476Z,58.7
2022-12-15T11:21:28.170Z,58.7
2022-12-15T11:23:11.805Z,58.7
2022-12-15T11:24:55.539Z,58.7
2022-12-15T11:26:39.285Z,58.8
2022-12-15T11:28:22.950Z,58.9
2022-12-15T11:30:06.644Z,58.9
2022-12-15T11:31:50.359Z,59
2022-12-15T11:33:34.002Z,58.9
2022-12-15T11:35:17.736Z,59
2022-12-15T11:37:01.294Z,59.1
2022-12-15T11:38:45.108Z,59.2
2022-12-15T11:40:28.744Z,59.3
2022-12-15T11:42:12.461Z,59.4
2022-12-15T11:43:56.276Z,59.4
2022-12-15T11:45:39.765Z,59.5
2022-12-15T11:47:23.672Z,59.5
2022-12-15T11:49:07.309Z,59.6
2022-12-15T11:50:51.167Z,59.7
2022-12-15T11:52:34.787Z,59.7
2022-12-15T11:54:18.524Z,59.8
2022-12-15T11:56:02.183Z,59.9
2022-12-15T11:57:45.868Z,59.9
2022-12-15T11:59:29.394Z,59.9
2022-12-15T12:01:13.215Z,60.1
2022-12-15T12:02:56.869Z,60.1
2022-12-15T12:04:40.681Z,60.2
2022-12-15T12:06:24.394Z,60.3
2022-12-15T12:08:08.077Z,60.5
2022-12-15T12:09:51.802Z,60.4
2022-12-15T12:11:35.501Z,60.5
2022-12-15T12:13:19.204Z,60.5
2022-12-15T12:15:02.793Z,60.6
2022-12-15T12:16:46.618Z,60.6
2022-12-15T12:18:30.240Z,60.7
2022-12-15T12:20:13.942Z,60.8
2022-12-15T12:21:57.673Z,60.8
2022-12-15T12:23:41.358Z,60.9
2022-12-15T12:25:25.075Z,60.9
2022-12-15T12:27:08.842Z,61.1
2022-12-15T12:28:52.552Z,61
2022-12-15T12:30:36.298Z,61.1
2022-12-15T12:32:19.734Z,61.1
2022-12-15T12:34:03.612Z,61
2022-12-15T12:35:47.347Z,61
2022-12-15T12:37:30.849Z,61
2022-12-15T12:39:14.690Z,60.9
2022-12-15T12:40:58.433Z,60.9
2022-12-15T12:42:42.116Z,60.9
2022-12-15T12:44:25.657Z,60.7
2022-12-15T12:46:09.542Z,60.8
2022-12-15T12:47:53.237Z,60.9
2022-12-15T12:49:36.951Z,61
2022-12-15T12:51:20.710Z,61
2022-12-15T12:53:04.355Z,61
2022-12-15T12:54:48.080Z,61
2022-12-15T12:56:31.772Z,61
2022-12-15T12:58:15.431Z,61.1
2022-12-15T12:59:59.155Z,61.1
2022-12-15T13:01:42.905Z,61.2
2022-12-15T13:03:26.524Z,61.2
2022-12-15T13:05:10.269Z,61.3
2022-12-15T13:06:53.954Z,61.3
2022-12-15T13:08:37.552Z,61.3
2022-12-15T13:10:21.397Z,61.4
2022-12-15T13:12:05.065Z,61.4
2022-12-15T13:15:32.485Z,61.5
2022-12-15T13:17:16.186Z,61.5
2022-12-15T13:18:59.864Z,61.5
2022-12-15T13:20:43.571Z,61.5
2022-12-15T13:22:27.291Z,61.6
2022-12-15T13:24:10.977Z,61.6
2022-12-15T13:25:54.778Z,61.6
2022-12-15T13:27:38.427Z,61.6
2022-12-15T13:29:22.095Z,61.7
2022-12-15T13:31:05.627Z,61.6
2022-12-15T13:32:49.496Z,61.7
2022-12-15T13:34:33.190Z,61.7
2022-12-15T13:36:16.993Z,61.8
2022-12-15T13:38:00.627Z,61.8
2022-12-15T13:39:44.324Z,61.8
2022-12-15T13:41:28.120Z,61.8
2022-12-15T13:43:11.719Z,61.8
2022-12-15T13:44:55.489Z,61.8
2022-12-15T13:46:39.116Z,61.8
2022-12-15T13:48:22.849Z,61.8
2022-12-15T13:50:06.503Z,61.8
2022-12-15T13:51:50.172Z,61.8
2022-12-15T13:53:33.796Z,61.8
2022-12-15T13:55:17.639Z,61.9
2022-12-15T13:57:01.326Z,61.9
2022-12-15T13:58:45.051Z,61.9
2022-12-15T14:00:28.746Z,61.9
2022-12-15T14:02:12.469Z,62
2022-12-15T14:03:56.172Z,62.1
2022-12-15T14:05:39.763Z,62.1
2022-12-15T14:09:07.241Z,62.2
2022-12-15T14:10:50.996Z,62.2
2022-12-15T14:12:34.626Z,62.3
2022-12-15T14:14:18.356Z,62.4
2022-12-15T14:16:02.058Z,62.4
2022-12-15T14:17:45.806Z,62.3
2022-12-15T14:19:29.475Z,62.3
2022-12-15T14:21:13.187Z,62.4
2022-12-15T14:22:56.883Z,62.3
2022-12-15T14:24:40.630Z,62.3
2022-12-15T14:26:24.243Z,62
2022-12-15T14:28:07.956Z,62
2022-12-15T14:29:51.665Z,62
2022-12-15T14:31:35.423Z,62.1
2022-12-15T14:33:19.109Z,61.9
2022-12-15T14:35:02.722Z,61.9
2022-12-15T14:36:46.507Z,62
2022-12-15T14:38:30.170Z,62
2022-12-15T14:40:13.865Z,61.9
2022-12-15T14:41:57.702Z,61.8
2022-12-15T14:43:41.148Z,61.7
2022-12-15T14:45:25.029Z,61.7
2022-12-15T14:47:08.765Z,61.6
2022-12-15T14:50:36.063Z,61.6
2022-12-15T14:52:19.843Z,61.5
2022-12-15T14:54:03.554Z,61.5
2022-12-15T14:55:47.057Z,61.5
2022-12-15T14:57:30.779Z,61.4
2022-12-15T14:59:14.561Z,61.5
2022-12-15T15:00:58.342Z,61.4
2022-12-15T15:02:42.009Z,61.4
2022-12-15T15:04:25.564Z,61.4
2022-12-15T15:06:09.305Z,61.3
2022-12-15T15:07:52.980Z,61.3
2022-12-15T15:09:36.728Z,61.4
2022-12-15T15:11:20.376Z,61.4
2022-12-15T15:13:04.089Z,61.3
2022-12-15T15:14:47.782Z,61.3
2022-12-15T15:16:31.541Z,61.2
2022-12-15T15:18:15.229Z,61.2
2022-12-15T15:19:58.904Z,61.2
2022-12-15T15:21:42.642Z,61.3
2022-12-15T15:25:10.003Z,61.3
2022-12-15T15:26:53.708Z,61.3
2022-12-15T15:28:37.574Z,61.2
2022-12-15T15:32:04.884Z,61.1
2022-12-15T15:33:48.522Z,61.1
2022-12-15T15:35:32.226Z,61
2022-12-15T15:37:15.919Z,60.9
2022-12-15T15:38:59.686Z,60.8
2022-12-15T15:40:43.338Z,60.5
2022-12-15T15:42:27.029Z,60.6
2022-12-15T15:44:10.721Z,60.7
2022-12-15T15:45:54.425Z,60.9
2022-12-15T15:47:38.129Z,61
2022-12-15T15:49:21.931Z,61.1
2022-12-15T15:51:05.529Z,61
2022-12-15T15:52:49.349Z,61
2022-12-15T15:54:32.947Z,61.1
2022-12-15T15:56:16.638Z,61.1
2022-12-15T15:58:00.341Z,61.2
2022-12-15T15:59:44.187Z,61.2
2022-12-15T16:01:27.744Z,61.3
2022-12-15T16:03:11.456Z,61.4
2022-12-15T16:04:55.171Z,61.4
2022-12-15T16:06:38.852Z,61.4
2022-12-15T16:08:22.617Z,61.4
2022-12-15T16:10:06.251Z,61.5
2022-12-15T16:11:49.973Z,61.5
2022-12-15T16:13:33.658Z,61.5
2022-12-15T16:15:17.362Z,61.6
2022-12-15T16:17:01.127Z,61.6
2022-12-15T16:18:44.877Z,61.6
2022-12-15T16:20:28.465Z,61.7
2022-12-15T16:22:12.176Z,61.7
2022-12-15T16:23:55.874Z,61.7
2022-12-15T16:25:39.589Z,61.7
2022-12-15T16:27:23.442Z,61.7
2022-12-15T16:29:06.991Z,61.7
2022-12-15T16:30:50.691Z,61.6
2022-12-15T16:32:34.439Z,61.7
2022-12-15T16:34:18.174Z,61.7
2022-12-15T16:36:01.841Z,61.6
2022-12-15T16:37:45.497Z,61.6
2022-12-15T16:39:29.313Z,61.5
2022-12-15T16:41:12.966Z,61.5
2022-12-15T16:42:56.629Z,61.5
2022-12-15T16:44:40.317Z,61.6
2022-12-15T16:46:24.107Z,61.5
2022-12-15T16:48:07.725Z,61.5
2022-12-15T16:49:51.446Z,61.6
2022-12-15T16:51:35.124Z,61.6
2022-12-15T16:53:18.826Z,61.8
2022-12-15T16:55:02.545Z,61.9
2022-12-15T16:56:46.221Z,62.1
2022-12-15T16:58:29.939Z,62.3
2022-12-15T17:00:13.719Z,62.4
2022-12-15T17:01:57.354Z,62.7
2022-12-15T17:03:41.122Z,62.8
2022-12-15T17:05:24.825Z,63
2022-12-15T17:07:08.523Z,63
2022-12-15T17:08:52.181Z,62.9
2022-12-15T17:10:35.853Z,63
2022-12-15T17:12:19.582Z,63
2022-12-15T17:14:03.413Z,62.9
2022-12-15T17:15:46.953Z,62.9
2022-12-15T17:17:30.703Z,62.9
2022-12-15T17:19:14.406Z,62.9
2022-12-15T17:20:58.076Z,63
2022-12-15T17:22:41.788Z,62.9
2022-12-15T17:24:25.729Z,63
2022-12-15T17:26:09.171Z,63
2022-12-15T17:27:52.958Z,62.9
2022-12-15T17:29:36.659Z,62.7
2022-12-15T17:31:20.281Z,62.6
2022-12-15T17:33:04.043Z,62.4
2022-12-15T17:34:47.684Z,62.2
2022-12-15T17:36:31.396Z,62.3
2022-12-15T17:38:15.083Z,62.3
2022-12-15T17:39:58.889Z,62.2
2022-12-15T17:41:42.578Z,62.2
2022-12-15T17:43:26.351Z,62.2
2022-12-15T17:45:09.903Z,62.1
2022-12-15T17:46:53.604Z,62
2022-12-15T17:48:37.361Z,62
2022-12-15T17:50:21.004Z,61.9
2022-12-15T17:52:04.708Z,61.8
2022-12-15T17:53:48.416Z,61.8
2022-12-15T17:55:32.217Z,61.8
2022-12-15T17:57:15.816Z,61.7
2022-12-15T17:58:59.515Z,61.7
2022-12-15T18:00:43.226Z,61.6
2022-12-15T18:02:26.919Z,61.6
2022-12-15T18:04:10.628Z,61.5
2022-12-15T18:05:54.334Z,61.6
2022-12-15T18:07:38.185Z,61.6
2022-12-15T18:09:21.740Z,61.6
2022-12-15T18:11:05.435Z,61.6
2022-12-15T18:12:49.137Z,61.6
2022-12-15T18:14:32.949Z,61.6
2022-12-15T18:16:16.549Z,61.6
2022-12-15T18:18:00.269Z,61.6
2022-12-15T18:19:43.991Z,61.6
2022-12-15T18:21:27.698Z,61.7
2022-12-15T18:23:11.363Z,61.7
2022-12-15T18:24:55.185Z,61.8
2022-12-15T18:26:38.767Z,61.8
2022-12-15T18:28:22.499Z,61.9
2022-12-15T18:30:06.212Z,61.9
2022-12-15T18:31:50.006Z,61.9
2022-12-15T18:33:33.568Z,62
2022-12-15T18:35:17.295Z,62
2022-12-15T18:37:00.990Z,62.1
2022-12-15T18:38:44.691Z,62
2022-12-15T18:40:28.380Z,62
2022-12-15T18:42:12.077Z,62.1
2022-12-15T18:43:55.778Z,62.1
2022-12-15T18:45:39.487Z,62.1
2022-12-15T18:47:23.190Z,62.1
2022-12-15T18:49:07.028Z,62.2
2022-12-15T18:50:50.604Z,62.2
2022-12-15T18:52:34.399Z,62.2
2022-12-15T18:54:18.001Z,62.2
2022-12-15T18:56:01.779Z,62.2
2022-12-15T18:57:45.461Z,62.3
2022-12-15T18:59:29.172Z,62.3
2022-12-15T19:01:12.997Z,62.4
2022-12-15T19:02:56.600Z,62.4
2022-12-15T19:04:40.287Z,62.4
2022-12-15T19:06:23.916Z,62.4
2022-12-15T19:08:07.654Z,62.4
2022-12-15T19:09:51.364Z,62.4
2022-12-15T19:11:35.056Z,62.4
2022-12-15T19:13:18.737Z,62.4
2022-12-15T19:15:02.608Z,62.5
2022-12-15T19:16:46.131Z,62.4
2022-12-15T19:18:29.842Z,62.4
2022-12-15T19:20:13.579Z,62.4
2022-12-15T19:21:57.248Z,62.5
2022-12-15T19:23:41.016Z,62.4
2022-12-15T19:25:24.644Z,62.5
2022-12-15T19:27:08.343Z,62.5
2022-12-15T19:28:52.185Z,62.5
2022-12-15T19:30:35.751Z,62.5
2022-12-15T19:32:19.456Z,62.5
2022-12-15T19:34:03.199Z,62.5
2022-12-15T19:35:46.956Z,62.5
2022-12-15T19:37:30.568Z,62.5
2022-12-15T19:39:14.345Z,62.5
2022-12-15T19:40:57.971Z,62.5
2022-12-15T19:42:41.683Z,62.5
2022-12-15T19:44:25.431Z,62.6
2022-12-15T19:46:09.211Z,62.6
2022-12-15T19:47:52.823Z,62.6
2022-12-15T19:49:36.489Z,62.6
2022-12-15T19:51:20.194Z,62.6
2022-12-15T19:53:03.982Z,62.6
2022-12-15T19:54:47.604Z,62.6
2022-12-15T19:56:31.367Z,62.6
2022-12-15T19:58:15.010Z,62.6
2022-12-15T19:59:58.708Z,62.6
2022-12-15T20:01:42.492Z,62.6
2022-12-15T20:03:26.267Z,62.6
2022-12-15T20:05:09.816Z,62.6
2022-12-15T20:06:53.585Z,62.6
2022-12-15T20:08:37.312Z,62.6
2022-12-15T20:10:20.915Z,62.6
2022-12-15T20:12:04.624Z,62.7
2022-12-15T20:13:48.325Z,62.6
2022-12-15T20:15:32.138Z,62.7
2022-12-15T20:17:15.730Z,62.6
2022-12-15T20:18:59.568Z,62.6
2022-12-15T20:20:43.150Z,62.6
2022-12-15T20:22:26.893Z,62.6
2022-12-15T20:24:10.658Z,62.6
2022-12-15T20:25:54.323Z,62.6
2022-12-15T20:27:37.966Z,62.6
2022-12-15T20:29:21.652Z,62.6
2022-12-15T20:31:05.360Z,62.6
2022-12-15T20:32:49.074Z,62.7
2022-12-15T20:34:32.927Z,62.7
2022-12-15T20:36:16.463Z,62.7
2022-12-15T20:38:00.165Z,62.7
2022-12-15T20:39:43.892Z,62.7
2022-12-15T20:41:27.607Z,62.7
2022-12-15T20:43:11.288Z,62.7
2022-12-15T20:44:55.027Z,62.6
2022-12-15T20:46:38.674Z,62.7
2022-12-15T20:48:22.379Z,62.7
2022-12-15T20:50:06.077Z,62.7
2022-12-15T20:51:49.785Z,62.7
2022-12-15T20:53:33.644Z,62.7
2022-12-15T20:55:17.213Z,62.7
2022-12-15T20:57:00.890Z,62.7
2022-12-15T20:58:44.668Z,62.7
2022-12-15T21:00:28.374Z,62.7
2022-12-15T21:02:11.997Z,62.7
2022-12-15T21:03:55.710Z,62.7
2022-12-15T21:05:39.415Z,62.7
2022-12-15T21:07:23.117Z,62.7
2022-12-15T21:09:06.854Z,62.6
2022-12-15T21:10:50.543Z,62.6
2022-12-15T21:12:34.283Z,62.6
2022-12-15T21:14:17.970Z,62.6
2022-12-15T21:16:01.643Z,62.6
2022-12-15T21:17:45.333Z,62.6
2022-12-15T21:19:29.036Z,62.6
2022-12-15T21:21:13.005Z,62.6
2022-12-15T21:22:56.627Z,62.6
2022-12-15T21:24:40.282Z,62.6
2022-12-15T21:26:24.016Z,62.6
2022-12-15T21:28:07.718Z,62.6
2022-12-15T21:29:51.355Z,62.7
2022-12-15T21:31:35.134Z,62.7
2022-12-15T21:33:18.799Z,62.6
2022-12-15T21:35:02.510Z,62.7
2022-12-15T21:36:46.188Z,62.6
2022-12-15T21:38:29.925Z,62.6
2022-12-15T21:40:13.576Z,62.6
2022-12-15T21:41:57.341Z,62.6
2022-12-15T21:43:41.031Z,62.6
2022-12-15T21:45:24.722Z,62.6
2022-12-15T21:47:08.313Z,62.6
2022-12-15T21:48:51.962Z,62.6
2022-12-15T21:50:35.834Z,62.6
2022-12-15T21:52:19.568Z,62.7
2022-12-15T21:54:03.291Z,62.7
2022-12-15T21:55:46.927Z,62.6
2022-12-15T21:57:30.654Z,62.7
2022-12-15T21:59:14.365Z,62.6
2022-12-15T22:00:57.887Z,62.7
2022-12-15T22:02:41.646Z,62.7
2022-12-15T22:04:25.509Z,62.6
2022-12-15T22:06:09.223Z,62.7
2022-12-15T22:07:52.875Z,62.6
2022-12-15T22:09:36.575Z,62.6
2022-12-15T22:13:04.017Z,62.6
2022-12-15T22:14:47.730Z,62.6
2022-12-15T22:16:31.203Z,62.6
2022-12-15T22:18:15.046Z,62.5
2022-12-15T22:19:58.797Z,62.5
2022-12-15T22:21:42.529Z,62.6
2022-12-15T22:23:26.253Z,62.6
2022-12-15T22:25:09.929Z,62.5
2022-12-15T22:26:53.648Z,62.3
2022-12-15T22:28:37.187Z,62.2
2022-12-15T22:30:21.092Z,62.2
2022-12-15T22:32:04.713Z,61.9
2022-12-15T22:33:48.274Z,61.8
2022-12-15T22:35:32.109Z,61.9
2022-12-15T22:37:15.747Z,62
2022-12-15T22:38:59.507Z,62
2022-12-15T22:40:43.215Z,62.1
2022-12-15T22:42:26.911Z,62.1
2022-12-15T22:44:10.524Z,62.2
2022-12-15T22:45:54.268Z,62.2
2022-12-15T22:47:38.089Z,62.3
2022-12-15T22:49:21.561Z,62.3
2022-12-15T22:51:05.490Z,62.3
2022-12-15T22:52:49.002Z,62.3
2022-12-15T22:54:32.845Z,62.3
2022-12-15T22:56:16.460Z,62.3
2022-12-15T22:58:00.253Z,62.3
2022-12-15T22:59:43.945Z,62.3
2022-12-15T23:01:27.643Z,62.3
2022-12-15T23:03:11.392Z,62.2
2022-12-15T23:04:55.046Z,62.3
2022-12-15T23:06:38.800Z,62.3
2022-12-15T23:08:22.331Z,62.3
2022-12-15T23:10:06.158Z,62.3
2022-12-15T23:11:49.954Z,62.3
2022-12-15T23:13:33.600Z,62.3
2022-12-15T23:15:17.272Z,62.2
2022-12-15T23:17:00.871Z,62
2022-12-15T23:18:44.672Z,61.9
2022-12-15T23:20:28.369Z,61.8